Time;durP1;ratioP1;P1;durP2;ratioP2;P2;SDS_P1;SDS_P2;PMS_P1;PMS_P2;Temp;Humidity;BMP_temperature;BMP_pressure;BME280_temperature;BME280_humidity;BME280_pressure;Samples;Min_cycle;Max_cycle;Signal;HPM_P1;HPM_P2
2021/04/06 00:01:45;;;;;;;118.57;71.90;;;153.80;2252.80;;;;;;4997197;28;20030;-81
2021/04/06 00:04:19;;;;;;;119.00;73.22;;;128.60;2252.80;;;;;;4997470;28;20117;-82
2021/04/06 00:06:50;;;;;;;115.30;72.32;;;128.80;2252.80;;;;;;4996849;28;20073;-83
2021/04/06 00:09:21;;;;;;;115.88;72.90;;;128.90;2252.80;;;;;;5004319;28;20026;-81
2021/04/06 00:11:50;;;;;;;108.32;66.13;;;128.60;2252.80;;;;;;5008776;28;20025;-80
2021/04/06 00:14:18;;;;;;;111.25;65.88;;;128.80;2252.80;;;;;;5010032;28;20033;-79
2021/04/06 00:16:49;;;;;;;105.43;66.40;;;153.70;2252.80;;;;;;5010300;28;20026;-83
2021/04/06 00:19:17;;;;;;;89.18;57.75;;;128.60;2252.80;;;;;;5014107;28;20010;-82
2021/04/06 00:21:44;;;;;;;85.68;56.55;;;128.60;2252.80;;;;;;5011191;28;20022;-81
2021/04/06 00:24:11;;;;;;;95.75;59.42;;;128.80;2252.80;;;;;;5011486;28;20042;-81
2021/04/06 00:26:52;;;;;;;90.30;57.95;;;128.50;2252.80;;;;;;5010068;28;20034;-78
2021/04/06 00:29:21;;;;;;;94.35;57.58;;;128.90;2252.80;;;;;;5000434;28;20062;-79
2021/04/06 00:31:50;;;;;;;96.90;59.67;;;128.90;2252.80;;;;;;4996367;28;20050;-81
2021/04/06 00:34:18;;;;;;;81.78;54.72;;;128.70;2252.80;;;;;;4996922;28;20041;-82
2021/04/06 00:36:54;;;;;;;93.22;56.72;;;128.40;2252.80;;;;;;4996993;28;20025;-81
2021/04/06 00:39:32;;;;;;;104.60;62.80;;;128.60;2252.80;;;;;;4996859;28;20034;-81
2021/04/06 00:42:19;;;;;;;105.93;63.22;;;128.80;2252.80;;;;;;4996936;28;20034;-81
2021/04/06 00:45:11;;;;;;;92.60;58.25;;;128.50;2252.80;;;;;;4996610;28;20083;-82
2021/04/06 00:47:38;;;;;;;93.18;62.28;;;128.70;2252.80;;;;;;4989745;28;20029;-81
2021/04/06 00:50:09;;;;;;;98.05;59.97;;;153.70;2252.80;;;;;;4996921;28;20037;-82
2021/04/06 00:52:42;;;;;;;87.13;55.28;;;128.40;2252.80;;;;;;4995826;28;20033;-82
2021/04/06 00:55:10;;;;;;;102.78;63.35;;;128.60;2252.80;;;;;;4996854;28;20044;-80
2021/04/06 00:57:42;;;;;;;108.70;61.13;;;128.60;2252.80;;;;;;4995622;28;20033;-82
2021/04/06 01:00:24;;;;;;;88.85;52.72;;;128.80;2252.80;;;;;;4996859;28;20389;-82
2021/04/06 01:03:04;;;;;;;76.20;46.17;;;128.30;2252.80;;;;;;4997248;28;20030;-82
2021/04/06 01:05:32;;;;;;;68.32;43.58;;;128.10;2252.80;;;;;;4997155;28;20022;-81
2021/04/06 01:07:59;;;;;;;75.65;45.13;;;128.10;2252.80;;;;;;4997950;28;20030;-82
2021/04/06 01:10:26;;;;;;;74.70;46.40;;;128.10;2252.80;;;;;;4997779;28;20544;-81
2021/04/06 01:12:55;;;;;;;69.75;42.80;;;128.00;2252.80;;;;;;4999063;28;20037;-83
2021/04/06 01:15:26;;;;;;;69.50;42.67;;;128.10;2252.80;;;;;;5000866;28;20131;-78
2021/04/06 01:17:55;;;;;;;68.60;43.30;;;103.20;2227.20;;;;;;5005863;28;20022;-82
2021/04/06 01:20:24;;;;;;;95.45;57.65;;;128.00;2252.80;;;;;;4987874;28;20397;-82
2021/04/06 01:22:58;;;;;;;79.50;50.10;;;128.30;2252.80;;;;;;5003399;28;20469;-83
2021/04/06 01:25:31;;;;;;;88.47;53.30;;;128.10;2252.80;;;;;;5001214;28;20125;-80
2021/04/06 01:28:09;;;;;;;90.28;50.90;;;128.20;2252.80;;;;;;5001767;28;20089;-79
2021/04/06 01:30:45;;;;;;;82.68;51.13;;;128.30;2252.80;;;;;;5001221;28;20078;-79
2021/04/06 01:33:24;;;;;;;71.70;46.17;;;128.10;2252.80;;;;;;5001729;28;20034;-81
2021/04/06 01:35:53;;;;;;;87.40;54.13;;;128.40;2252.80;;;;;;5001459;28;20089;-82
2021/04/06 01:38:26;;;;;;;92.47;54.47;;;128.30;2252.80;;;;;;5001472;28;20045;-80
2021/04/06 01:40:56;;;;;;;101.43;58.15;;;128.40;2252.80;;;;;;5000729;28;20076;-81
2021/04/06 01:43:25;;;;;;;100.60;56.65;;;128.20;2252.80;;;;;;4985266;28;20038;-81
2021/04/06 01:45:56;;;;;;;92.15;52.95;;;128.40;2252.80;;;;;;5001919;28;20036;-80
2021/04/06 01:48:23;;;;;;;86.45;51.33;;;103.10;2227.20;;;;;;5004930;28;20117;-80
2021/04/06 01:50:54;;;;;;;91.88;52.80;;;103.20;2227.20;;;;;;5003796;28;20567;-82
2021/04/06 01:53:22;;;;;;;89.10;51.47;;;128.20;2252.80;;;;;;5001038;28;20393;-82
2021/04/06 01:55:51;;;;;;;83.13;47.75;;;103.20;2227.20;;;;;;5005127;28;20052;-81
2021/04/06 01:58:21;;;;;;;93.47;51.55;;;103.10;2227.20;;;;;;5002775;28;20022;-81
2021/04/06 02:01:01;;;;;;;71.07;40.95;;;103.20;2227.20;;;;;;5005368;28;20022;-81
2021/04/06 02:03:31;;;;;;;62.47;37.28;;;102.90;2227.20;;;;;;5004812;28;20018;-81
2021/04/06 02:05:58;;;;;;;67.20;41.25;;;103.00;2227.20;;;;;;5004795;28;20057;-81
2021/04/06 02:08:27;;;;;;;77.25;40.90;;;103.20;2227.20;;;;;;5006736;28;20030;-81
2021/04/06 02:10:56;;;;;;;61.30;37.78;;;102.80;2227.20;;;;;;5003822;28;20408;-80
2021/04/06 02:13:22;;;;;;;79.90;42.70;;;103.00;2227.20;;;;;;5005351;28;20030;-79
2021/04/06 02:16:00;;;;;;;77.07;42.15;;;103.00;2227.20;;;;;;4972952;28;20044;-80
2021/04/06 02:18:29;;;;;;;67.38;38.92;;;103.20;2227.20;;;;;;5004841;28;20022;-81
2021/04/06 02:20:59;;;;;;;56.45;34.22;;;102.90;2227.20;;;;;;5006227;28;20029;-79
2021/04/06 02:23:35;;;;;;;53.78;35.92;;;102.90;2227.20;;;;;;5007948;28;20434;-80
2021/04/06 02:26:01;;;;;;;68.25;38.17;;;103.10;2227.20;;;;;;4992978;28;20030;-80
2021/04/06 02:28:29;;;;;;;79.15;44.50;;;103.10;2227.20;;;;;;5003131;28;20093;-81
2021/04/06 02:30:58;;;;;;;67.95;42.90;;;103.20;2227.20;;;;;;4968894;28;974419;-80
2021/04/06 02:33:32;;;;;;;88.38;49.15;;;102.80;2227.20;;;;;;5007472;28;20044;-79
2021/04/06 02:36:09;;;;;;;86.40;46.78;;;103.00;2227.20;;;;;;5005206;28;20552;-80
2021/04/06 02:38:41;;;;;;;99.88;52.17;;;103.10;2227.20;;;;;;5008384;28;20384;-80
2021/04/06 02:41:15;;;;;;;102.47;55.85;;;103.10;2227.20;;;;;;5007607;28;20088;-80
2021/04/06 02:43:53;;;;;;;107.82;58.33;;;103.20;2227.20;;;;;;5008762;28;20116;-80
2021/04/06 02:46:20;;;;;;;87.43;52.28;;;103.30;2227.20;;;;;;5005885;28;20037;-81
2021/04/06 02:48:47;;;;;;;70.97;43.10;;;103.00;2227.20;;;;;;5011236;28;20040;-80
2021/04/06 02:51:14;;;;;;;56.35;33.55;;;103.10;2227.20;;;;;;5012156;28;20447;-80
2021/04/06 02:53:42;;;;;;;55.97;36.08;;;103.20;2227.20;;;;;;5009393;28;20497;-80
2021/04/06 02:56:09;;;;;;;68.75;39.67;;;128.00;2252.80;;;;;;5004730;28;20489;-80
2021/04/06 02:58:36;;;;;;;73.45;42.08;;;103.30;2227.20;;;;;;4988257;28;20037;-82
2021/04/06 03:01:18;;;;;;;52.97;34.72;;;103.00;2227.20;;;;;;5011818;28;20026;-81
2021/04/06 03:03:44;;;;;;;63.03;36.97;;;103.00;2227.20;;;;;;4991826;28;20065;-80
2021/04/06 03:06:14;;;;;;;56.17;32.08;;;103.00;2227.20;;;;;;5007517;28;20026;-80
2021/04/06 03:08:42;;;;;;;55.42;33.40;;;102.70;2227.20;;;;;;5008934;28;20037;-80
2021/04/06 03:11:11;;;;;;;56.15;32.85;;;103.00;2227.20;;;;;;4992037;28;20118;-80
2021/04/06 03:13:43;;;;;;;59.20;33.83;;;103.00;2227.20;;;;;;5008332;28;20076;-81
2021/04/06 03:16:11;;;;;;;79.15;43.25;;;102.90;2227.20;;;;;;5009639;28;20026;-80
2021/04/06 03:18:40;;;;;;;74.75;41.08;;;102.80;2227.20;;;;;;5028418;28;20030;-81
2021/04/06 03:21:08;;;;;;;72.03;41.17;;;102.70;2227.20;;;;;;5010046;28;20049;-80
2021/04/06 03:23:36;;;;;;;74.63;42.45;;;102.80;2227.20;;;;;;5008927;28;20113;-81
2021/04/06 03:26:04;;;;;;;92.82;48.78;;;103.00;2227.20;;;;;;5011052;28;20030;-80
2021/04/06 03:28:36;;;;;;;86.00;47.88;;;103.00;2227.20;;;;;;4995693;28;20037;-81
2021/04/06 03:31:06;;;;;;;83.88;44.45;;;103.10;2227.20;;;;;;5008969;28;20058;-80
2021/04/06 03:33:34;;;;;;;129.80;66.57;;;103.00;2227.20;;;;;;5013021;28;20093;-80
2021/04/06 03:36:00;;;;;;;128.13;66.32;;;103.00;2227.20;;;;;;5010422;28;20026;-79
2021/04/06 03:38:26;;;;;;;168.27;88.07;;;103.10;2227.20;;;;;;5012573;28;20492;-78
2021/04/06 03:40:52;;;;;;;153.65;81.93;;;102.90;2227.20;;;;;;5011960;28;20022;-78
2021/04/06 03:43:21;;;;;;;157.80;85.55;;;103.00;2227.20;;;;;;5012995;28;20022;-80
2021/04/06 03:46:02;;;;;;;155.50;87.00;;;103.00;2227.20;;;;;;5009021;28;20030;-80
2021/04/06 03:48:34;;;;;;;145.65;83.63;;;102.90;2227.20;;;;;;5010020;28;20139;-80
2021/04/06 03:51:03;;;;;;;100.03;58.90;;;103.00;2227.20;;;;;;5010785;28;20445;-80
2021/04/06 03:53:56;;;;;;;99.75;56.80;;;102.80;2227.20;;;;;;5009827;28;20038;-79
2021/04/06 03:56:34;;;;;;;96.28;51.97;;;102.70;2227.20;;;;;;5027024;28;20053;-79
2021/04/06 03:59:10;;;;;;;90.80;52.25;;;102.80;2227.20;;;;;;5026129;28;20045;-78
2021/04/06 04:01:37;;;;;;;90.25;52.28;;;102.60;2227.20;;;;;;5007136;28;20030;-79
2021/04/06 04:04:03;;;;;;;81.53;48.30;;;102.70;2227.20;;;;;;5007673;28;20025;-79
2021/04/06 04:06:31;;;;;;;90.38;52.60;;;102.80;2227.20;;;;;;5008313;28;20021;-80
2021/04/06 04:08:58;;;;;;;120.43;67.28;;;102.70;2227.20;;;;;;5008619;28;20029;-78
2021/04/06 04:11:24;;;;;;;123.65;70.60;;;102.90;2227.20;;;;;;5010509;28;20029;-81
2021/04/06 04:13:51;;;;;;;165.30;89.53;;;103.00;2227.20;;;;;;5009816;28;20022;-81
2021/04/06 04:16:17;;;;;;;150.02;85.88;;;102.60;2227.20;;;;;;5006722;28;20030;-82
2021/04/06 04:18:45;;;;;;;127.85;74.78;;;102.80;2227.20;;;;;;5025757;28;20029;-81
2021/04/06 04:21:12;;;;;;;116.32;70.97;;;102.90;2227.20;;;;;;5010078;28;20120;-81
2021/04/06 04:23:40;;;;;;;119.40;73.85;;;102.90;2227.20;;;;;;5011318;28;20037;-82
2021/04/06 04:26:06;;;;;;;115.18;71.32;;;102.70;2227.20;;;;;;5007719;28;20026;-81
2021/04/06 04:28:32;;;;;;;116.15;67.32;;;102.90;2227.20;;;;;;5008172;28;20026;-80
2021/04/06 04:31:05;;;;;;;125.72;77.15;;;102.90;2227.20;;;;;;5008292;28;20057;-81
2021/04/06 04:33:31;;;;;;;111.85;71.80;;;103.10;2227.20;;;;;;5028434;28;20024;-82
2021/04/06 04:35:57;;;;;;;132.98;78.72;;;103.20;2227.20;;;;;;5010035;28;20038;-81
2021/04/06 04:38:26;;;;;;;164.55;89.22;;;102.60;2227.20;;;;;;5007381;28;20033;-81
2021/04/06 04:40:52;;;;;;;164.60;95.50;;;102.70;2227.20;;;;;;5008934;28;20037;-80
2021/04/06 04:43:21;;;;;;;199.85;119.38;;;102.50;2227.20;;;;;;5011091;28;20030;-82
2021/04/06 04:45:47;;;;;;;172.45;99.07;;;102.40;2227.20;;;;;;5010775;28;20030;-80
2021/04/06 04:48:14;;;;;;;202.85;109.53;;;102.40;2227.20;;;;;;5028050;28;20056;-81
2021/04/06 04:50:42;;;;;;;198.93;106.22;;;102.60;2227.20;;;;;;5011518;28;20025;-80
2021/04/06 04:53:08;;;;;;;91.95;56.50;;;102.50;2227.20;;;;;;5011071;28;20034;-80
2021/04/06 04:55:35;;;;;;;57.22;36.75;;;102.80;2227.20;;;;;;5011453;28;20029;-81
2021/04/06 04:58:01;;;;;;;66.68;44.22;;;102.70;2227.20;;;;;;5010427;28;20034;-80
2021/04/06 05:00:27;;;;;;;74.25;41.85;;;102.80;2227.20;;;;;;5012239;28;20482;-81
2021/04/06 05:02:54;;;;;;;68.82;40.63;;;103.30;2227.20;;;;;;5010556;28;20039;-81
2021/04/06 05:05:20;;;;;;;68.80;41.35;;;102.50;2227.20;;;;;;5011309;28;20025;-81
2021/04/06 05:07:47;;;;;;;88.15;50.70;;;102.50;2227.20;;;;;;4994366;28;20500;-81
2021/04/06 05:10:16;;;;;;;77.60;48.42;;;102.80;2227.20;;;;;;5011570;28;20034;-81
2021/04/06 05:12:42;;;;;;;84.45;51.55;;;102.70;2227.20;;;;;;5011924;28;20113;-81
2021/04/06 05:15:10;;;;;;;94.28;57.17;;;102.80;2227.20;;;;;;5014837;28;20086;-81
2021/04/06 05:17:36;;;;;;;93.00;56.33;;;103.00;2227.20;;;;;;4999403;28;20032;-82
2021/04/06 05:20:05;;;;;;;68.20;45.60;;;103.20;2227.20;;;;;;5014585;28;20083;-82
2021/04/06 05:22:33;;;;;;;76.32;50.40;;;103.00;2227.20;;;;;;5032236;28;20026;-82
2021/04/06 05:25:01;;;;;;;67.60;43.58;;;103.10;2227.20;;;;;;5009793;28;20037;-82
2021/04/06 05:27:27;;;;;;;63.70;43.38;;;102.90;2227.20;;;;;;5007788;28;20034;-82
2021/04/06 05:29:53;;;;;;;70.80;43.38;;;103.10;2227.20;;;;;;5001505;28;21069;-81
2021/04/06 05:32:19;;;;;;;70.55;45.92;;;103.20;2227.20;;;;;;5008960;28;20046;-81
2021/04/06 05:34:46;;;;;;;81.57;51.90;;;103.10;2227.20;;;;;;5006451;28;20053;-82
2021/04/06 05:38:11;;;;;;;83.10;51.05;;;128.00;2252.80;;;;;;4983892;28;20033;-82
2021/04/06 05:40:37;;;;;;;72.35;48.55;;;128.00;2252.80;;;;;;4987617;28;20117;-83
2021/04/06 05:43:04;;;;;;;87.53;55.25;;;128.20;2252.80;;;;;;5002732;28;20061;-83
2021/04/06 05:45:32;;;;;;;77.85;51.88;;;128.30;2252.80;;;;;;4984884;28;20496;-80
2021/04/06 05:48:01;;;;;;;97.13;57.70;;;128.10;2252.80;;;;;;5000588;28;20089;-83
2021/04/06 05:50:28;;;;;;;86.70;56.92;;;128.10;2252.80;;;;;;5000270;28;20026;-82
2021/04/06 05:52:55;;;;;;;109.85;74.93;;;128.10;2252.80;;;;;;4983215;28;20125;-82
2021/04/06 05:55:21;;;;;;;217.88;103.70;;;128.40;2252.80;;;;;;4997893;28;20504;-80
2021/04/06 05:57:47;;;;;;;123.78;67.72;;;128.50;2252.80;;;;;;4997491;28;20540;-82
2021/04/06 06:00:15;;;;;;;90.05;54.15;;;128.60;2252.80;;;;;;4996579;28;20030;-83
2021/04/06 06:02:41;;;;;;;76.10;52.10;;;128.80;2252.80;;;;;;4997221;28;20032;-82
2021/04/06 06:05:08;;;;;;;73.40;49.58;;;128.70;2252.80;;;;;;4999734;28;20022;-82
2021/04/06 06:07:34;;;;;;;69.97;45.42;;;153.60;2252.80;;;;;;4999329;28;20030;-83
2021/04/06 06:10:32;;;;;;;141.98;97.60;;;153.70;2252.80;;;;;;4999717;28;20029;-82
2021/04/06 06:13:16;;;;;;;100.20;68.00;;;153.70;2252.80;;;;;;4999884;28;20525;-81
2021/04/06 06:15:42;;;;;;;89.90;59.97;;;153.90;2252.80;;;;;;4999112;28;20036;-83
2021/04/06 06:18:08;;;;;;;106.40;69.82;;;154.00;2252.80;;;;;;4998651;28;20022;-83
2021/04/06 06:20:36;;;;;;;108.82;70.03;;;154.20;2252.80;;;;;;5016617;28;20025;-83
2021/04/06 06:23:28;;;;;;;89.10;60.63;;;154.50;2252.80;;;;;;4998992;28;20025;-84
2021/04/06 06:26:10;;;;;;;87.00;54.25;;;154.40;2252.80;;;;;;5013285;28;20537;-84
2021/04/06 06:28:38;;;;;;;80.00;53.17;;;179.20;2252.80;;;;;;4998111;28;20114;-82
2021/04/06 06:31:04;;;;;;;80.68;50.70;;;179.40;2252.80;;;;;;4998579;28;20452;-82
2021/04/06 06:33:35;;;;;;;76.57;47.75;;;179.40;2252.80;;;;;;4998694;28;20065;-81
2021/04/06 06:36:10;;;;;;;73.50;48.55;;;179.60;2252.80;;;;;;4999111;28;20504;-82
2021/04/06 06:38:42;;;;;;;77.30;53.15;;;179.70;2252.80;;;;;;4998636;28;20042;-83
2021/04/06 06:41:12;;;;;;;70.07;50.90;;;179.80;2252.80;;;;;;4998660;28;20034;-83
2021/04/06 06:43:47;;;;;;;67.20;45.97;;;180.00;2252.80;;;;;;4998263;28;20034;-84
2021/04/06 06:46:23;;;;;;;63.90;44.80;;;204.80;2252.80;;;;;;5015986;28;20358;-85
2021/04/06 06:49:04;;;;;;;78.20;51.15;;;204.90;2252.80;;;;;;4998168;28;20049;-85
2021/04/06 06:51:36;;;;;;;71.18;45.97;;;205.10;2252.80;;;;;;4998280;28;20026;-85
2021/04/06 06:54:03;;;;;;;69.45;46.00;;;205.20;2252.80;;;;;;4997326;28;20034;-82
2021/04/06 06:56:40;;;;;;;73.90;52.72;;;205.40;2252.80;;;;;;4997809;28;20048;-84
2021/04/06 06:59:08;;;;;;;83.72;57.33;;;205.70;2252.80;;;;;;5014950;28;20022;-85
2021/04/06 07:01:37;;;;;;;83.32;57.58;;;230.40;2252.80;;;;;;4998233;28;20482;-85
2021/04/06 07:04:12;;;;;;;70.82;49.83;;;230.60;2252.80;;;;;;4997757;28;20041;-82
2021/04/06 07:06:46;;;;;;;60.97;40.08;;;230.80;2252.80;;;;;;4998143;28;20022;-85
2021/04/06 07:09:29;;;;;;;57.13;39.65;;;230.80;2252.80;;;;;;4998301;28;20029;-86
2021/04/06 07:12:03;;;;;;;;;;;231.00;2252.80;;;;;;4998393;28;20018;-83
2021/04/06 07:14:30;;;;;;;44.75;33.22;;;231.20;2252.80;;;;;;4995916;28;20008;-85
2021/04/06 07:17:08;;;;;;;47.47;32.38;;;256.00;2252.80;;;;;;4997539;28;20018;-84
2021/04/06 07:19:50;;;;;;;56.80;39.78;;;256.00;2252.80;;;;;;4997158;28;20026;-85
2021/04/06 07:22:23;;;;;;;65.28;43.45;;;256.10;2252.80;;;;;;4997873;28;20029;-85
2021/04/06 07:24:50;;;;;;;58.30;39.42;;;256.30;2252.80;;;;;;4997609;28;20040;-85
2021/04/06 07:27:20;;;;;;;76.78;44.38;;;256.30;2252.80;;;;;;4997609;28;20030;-84
2021/04/06 07:29:47;;;;;;;22.85;15.20;;;256.50;2252.80;;;;;;4997544;28;20390;-84
2021/04/06 07:32:14;;;;;;;30.48;21.85;;;256.60;2227.20;;;;;;4997615;28;20030;-84
2021/04/06 07:34:42;;;;;;;27.58;17.55;;;256.60;2227.20;;;;;;4997391;28;20111;-84
2021/04/06 07:37:20;;;;;;;23.45;14.77;;;256.80;2150.40;;;;;;5014959;28;20026;-81
2021/04/06 07:39:54;;;;;;;25.02;16.67;;;256.80;2150.40;;;;;;4996642;28;20034;-83
2021/04/06 07:42:23;;;;;;;26.00;15.88;;;256.90;2201.60;;;;;;4997516;28;20030;-85
2021/04/06 07:44:50;;;;;;;30.70;18.42;;;281.60;2124.80;;;;;;4997206;28;20030;-86
2021/04/06 07:47:38;;;;;;;20.02;12.98;;;281.70;2176.00;;;;;;4997554;28;20068;-84
2021/04/06 07:50:14;;;;;;;24.33;15.45;;;281.90;2176.00;;;;;;4997640;28;20433;-86
2021/04/06 07:53:40;;;;;;;19.65;10.80;;;281.90;2176.00;;;;;;5000754;28;20112;-86
2021/04/06 07:57:12;;;;;;;24.00;14.10;;;282.00;1996.80;;;;;;4986314;28;20061;-81
2021/04/06 07:59:44;;;;;;;32.58;18.40;;;282.50;1996.80;;;;;;4919450;29;20028;-84
2021/04/06 08:02:10;;;;;;;21.95;13.52;;;307.20;1996.80;;;;;;4935394;29;20050;-85
2021/04/06 08:05:00;;;;;;;20.35;13.07;;;307.20;2073.60;;;;;;4970464;28;20041;-86
2021/04/06 08:07:37;;;;;;;19.30;13.13;;;282.50;1894.40;;;;;;4996840;28;20034;-82
2021/04/06 08:10:12;;;;;;;19.35;12.32;;;307.30;1971.20;;;;;;4996974;28;20075;-80
2021/04/06 08:12:41;;;;;;;24.77;14.48;;;307.30;1996.80;;;;;;4996525;28;20516;-81
2021/04/06 08:15:21;;;;;;;19.85;14.05;;;307.50;1920.00;;;;;;4996750;28;20081;-81
2021/04/06 08:17:50;;;;;;;18.38;12.90;;;307.70;1971.20;;;;;;4997158;28;20026;-84
2021/04/06 08:20:23;;;;;;;19.00;12.63;;;307.70;1920.00;;;;;;4996769;28;20107;-85
2021/04/06 08:22:51;;;;;;;32.13;18.00;;;307.90;1868.80;;;;;;4996304;28;20044;-80
2021/04/06 08:25:23;;;;;;;17.92;12.95;;;308.00;1894.40;;;;;;4996285;28;20025;-78
2021/04/06 08:27:51;;;;;;;24.00;13.25;;;308.10;1792.00;;;;;;4995766;28;20038;-79
2021/04/06 08:30:26;;;;;;;17.80;11.60;;;308.10;1843.20;;;;;;5013343;28;20042;-76
2021/04/06 08:32:58;;;;;;;24.67;14.95;;;332.90;1792.00;;;;;;4996766;28;20089;-78
2021/04/06 08:35:49;;;;;;;24.40;16.00;;;333.00;1766.40;;;;;;5013698;28;20163;-82
2021/04/06 08:38:24;;;;;;;20.13;13.77;;;333.10;1766.40;;;;;;4996844;28;20036;-84
2021/04/06 08:41:05;;;;;;;22.40;13.75;;;333.40;1792.00;;;;;;4996165;28;20034;-84
2021/04/06 08:43:34;;;;;;;23.45;11.85;;;333.60;1740.80;;;;;;4996366;28;20029;-84
2021/04/06 08:46:01;;;;;;;19.58;11.05;;;333.70;1740.80;;;;;;4995147;28;20026;-86
2021/04/06 08:48:52;;;;;;;19.15;12.05;;;358.40;1664.00;;;;;;4995241;28;20025;-84
2021/04/06 08:51:57;;;;;;;15.27;9.93;;;358.60;1689.60;;;;;;5013639;28;20038;-84
2021/04/06 08:54:26;;;;;;;13.13;9.90;;;358.50;1664.00;;;;;;5010252;28;20034;-85
2021/04/06 08:56:57;;;;;;;19.55;9.65;;;358.70;1612.80;;;;;;4996131;28;20026;-84
2021/04/06 08:59:37;;;;;;;20.27;11.95;;;358.70;1612.80;;;;;;4996416;28;20026;-84
2021/04/06 09:02:15;;;;;;;15.30;9.25;;;358.80;1612.80;;;;;;4996648;28;20030;-84
2021/04/06 09:04:49;;;;;;;18.42;9.73;;;358.90;1587.20;;;;;;4996567;28;20068;-85
2021/04/06 09:07:19;;;;;;;13.15;7.90;;;359.00;1561.60;;;;;;4996359;28;20022;-84
2021/04/06 09:09:46;;;;;;;15.68;7.95;;;359.00;1536.00;;;;;;5014357;28;20022;-85
2021/04/06 09:12:13;;;;;;;17.25;9.43;;;359.00;1459.20;;;;;;4996033;28;20028;-85
2021/04/06 09:14:39;;;;;;;17.63;10.15;;;359.10;1484.80;;;;;;4996194;28;20076;-85
2021/04/06 09:17:05;;;;;;;12.23;7.07;;;359.10;1510.40;;;;;;4996952;28;20422;-85
2021/04/06 09:19:35;;;;;;;12.00;7.65;;;359.10;1382.40;;;;;;4996228;28;20022;-83
2021/04/06 09:22:04;;;;;;;20.80;11.35;;;359.00;1408.00;;;;;;5013607;28;20385;-85
2021/04/06 09:24:30;;;;;;;18.67;10.18;;;359.30;1459.20;;;;;;4996271;28;20033;-85
2021/04/06 09:26:57;;;;;;;20.08;11.75;;;359.30;1408.00;;;;;;5013467;28;20026;-83
2021/04/06 09:29:33;;;;;;;15.05;10.43;;;384.00;1382.40;;;;;;4996321;28;20113;-82
2021/04/06 09:32:04;;;;;;;11.90;8.30;;;384.10;1356.80;;;;;;5014482;28;20081;-84
2021/04/06 09:34:39;;;;;;;19.85;14.20;;;384.10;1331.20;;;;;;4996053;28;20080;-83
2021/04/06 09:37:18;;;;;;;19.98;11.88;;;384.30;1356.80;;;;;;4996185;28;20026;-83
2021/04/06 09:39:49;;;;;;;15.63;10.35;;;384.30;1408.00;;;;;;5017532;28;20030;-83
2021/04/06 09:42:16;;;;;;;12.57;9.43;;;384.40;1356.80;;;;;;4999498;28;20026;-83
2021/04/06 09:44:43;;;;;;;13.52;8.43;;;384.50;1382.40;;;;;;5000453;28;20355;-83
2021/04/06 09:47:14;;;;;;;12.57;8.48;;;384.60;1331.20;;;;;;4999579;28;20123;-85
2021/04/06 09:49:46;;;;;;;16.13;7.13;;;384.70;1382.40;;;;;;5017361;28;20492;-83
2021/04/06 09:52:18;;;;;;;11.25;7.03;;;384.80;1331.20;;;;;;5017719;28;20025;-82
2021/04/06 09:55:07;;;;;;;12.80;7.57;;;384.80;1331.20;;;;;;5016770;28;20036;-82
2021/04/06 09:57:44;;;;;;;13.20;6.70;;;384.90;1331.20;;;;;;5007428;28;20042;-84
2021/04/06 10:00:16;;;;;;;8.25;6.07;;;384.90;1203.20;;;;;;5017363;28;20029;-82
2021/04/06 10:02:43;;;;;;;10.32;6.82;;;409.70;1228.80;;;;;;5016918;28;20022;-83
2021/04/06 10:05:20;;;;;;;12.30;7.47;;;409.80;1203.20;;;;;;5017091;28;20034;-80
2021/04/06 10:07:47;;;;;;;15.05;9.93;;;409.90;1203.20;;;;;;5016566;28;20080;-79
2021/04/06 10:10:23;;;;;;;16.40;8.77;;;410.00;1228.80;;;;;;4997402;28;20495;-78
2021/04/06 10:12:50;;;;;;;13.27;7.85;;;410.30;1228.80;;;;;;4998603;28;20053;-79
2021/04/06 10:15:20;;;;;;;10.45;6.90;;;435.30;1152.00;;;;;;5015944;28;20103;-78
2021/04/06 10:17:46;;;;;;;9.20;5.50;;;435.40;1152.00;;;;;;5014982;28;20038;-80
2021/04/06 10:20:35;;;;;;;25.40;20.10;;;435.40;1075.20;;;;;;4998749;28;20030;-80
2021/04/06 10:23:01;;;;;;;9.60;6.07;;;435.70;1100.80;;;;;;5013257;28;20053;-79
2021/04/06 10:25:33;;;;;;;12.68;8.02;;;435.90;1100.80;;;;;;5011302;28;20061;-81
2021/04/06 10:28:01;;;;;;;28.02;14.32;;;460.80;1152.00;;;;;;5010098;28;20030;-76
2021/04/06 10:30:41;;;;;;;11.90;8.07;;;461.00;1075.20;;;;;;5007516;28;20058;-75
2021/04/06 10:33:10;;;;;;;9.57;6.20;;;461.30;1100.80;;;;;;5007300;28;20389;-75
2021/04/06 10:35:58;;;;;;;12.55;5.60;;;461.50;1075.20;;;;;;4993922;28;20116;-79
2021/04/06 10:38:25;;;;;;;12.65;6.78;;;461.40;1075.20;;;;;;5007042;28;20029;-75
2021/04/06 10:41:14;;;;;;;10.98;6.05;;;461.50;1100.80;;;;;;5011775;28;20041;-77
2021/04/06 10:43:52;;;;;;;8.93;6.53;;;461.60;1049.60;;;;;;4994086;28;20458;-74
2021/04/06 10:46:25;;;;;;;6.80;4.10;;;461.70;998.40;;;;;;5010950;28;20109;-74
2021/04/06 10:49:06;;;;;;;12.18;8.13;;;486.40;972.80;;;;;;4992932;28;20026;-77
2021/04/06 10:51:34;;;;;;;14.10;6.90;;;486.40;1075.20;;;;;;4998778;28;20022;-76
2021/04/06 10:54:07;;;;;;;11.82;6.85;;;461.50;1126.40;;;;;;4993109;28;20030;-73
2021/04/06 10:56:42;;;;;;;10.73;5.40;;;461.50;1075.20;;;;;;4993617;28;20069;-75
2021/04/06 10:59:11;;;;;;;12.63;9.80;;;461.70;1100.80;;;;;;4996811;28;20109;-76
2021/04/06 11:01:49;;;;;;;13.65;8.93;;;486.80;1075.20;;;;;;4996783;28;20030;-76
2021/04/06 11:04:20;;;;;;;9.40;5.53;;;487.00;1024.00;;;;;;4992819;28;20423;-75
2021/04/06 11:06:56;;;;;;;11.93;6.70;;;486.70;972.80;;;;;;5012569;28;20025;-74
2021/04/06 11:09:25;;;;;;;10.70;5.80;;;487.20;1024.00;;;;;;4992119;28;20052;-74
2021/04/06 11:11:55;;;;;;;7.53;5.40;;;512.10;998.40;;;;;;5009442;28;20026;-77
2021/04/06 11:14:25;;;;;;;11.70;4.97;;;512.60;972.80;;;;;;5011108;28;20749;-76
2021/04/06 11:16:52;;;;;;;8.60;5.20;;;512.60;896.00;;;;;;4990421;28;20025;-74
2021/04/06 11:19:30;;;;;;;8.88;5.40;;;512.70;921.60;;;;;;5010631;28;20420;-75
2021/04/06 11:21:59;;;;;;;7.95;5.22;;;512.80;947.20;;;;;;4992256;28;20034;-76
2021/04/06 11:24:28;;;;;;;11.68;7.32;;;537.60;998.40;;;;;;5009516;28;20489;-77
2021/04/06 11:26:54;;;;;;;7.22;4.75;;;537.80;972.80;;;;;;5009906;28;20045;-75
2021/04/06 11:29:25;;;;;;;17.48;7.55;;;537.90;998.40;;;;;;5009173;28;20104;-75
2021/04/06 11:31:56;;;;;;;10.48;7.22;;;538.00;972.80;;;;;;5009564;28;20050;-76
2021/04/06 11:34:23;;;;;;;14.88;8.13;;;538.10;998.40;;;;;;4994276;28;20109;-75
2021/04/06 11:36:50;;;;;;;13.38;8.80;;;538.20;998.40;;;;;;4994601;28;20030;-75
2021/04/06 11:39:18;;;;;;;17.48;11.32;;;538.40;1024.00;;;;;;5010355;28;20105;-74
2021/04/06 11:41:45;;;;;;;11.70;6.72;;;538.50;1024.00;;;;;;5008297;28;21085;-77
2021/04/06 11:44:12;;;;;;;8.10;5.80;;;538.50;998.40;;;;;;4994609;28;20026;-78
2021/04/06 11:46:40;;;;;;;12.52;6.00;;;563.30;1024.00;;;;;;4991576;28;20022;-75
2021/04/06 11:49:08;;;;;;;9.27;5.30;;;563.30;998.40;;;;;;4993951;28;20033;-75
2021/04/06 11:51:34;;;;;;;15.02;9.57;;;538.50;947.20;;;;;;5006740;28;20170;-76
2021/04/06 11:54:00;;;;;;;10.55;6.68;;;537.60;972.80;;;;;;4993962;28;20022;-77
2021/04/06 11:56:26;;;;;;;10.38;6.13;;;512.30;998.40;;;;;;4991698;28;20783;-77
2021/04/06 11:58:52;;;;;;;12.40;6.53;;;487.30;998.40;;;;;;4993124;28;20477;-76
2021/04/06 12:01:18;;;;;;;12.20;6.95;;;512.70;1049.60;;;;;;5011305;28;20061;-76
2021/04/06 12:03:44;;;;;;;11.70;6.78;;;537.70;1024.00;;;;;;5016436;28;20053;-75
2021/04/06 12:06:10;;;;;;;8.00;6.13;;;538.10;998.40;;;;;;5012973;28;20030;-78
2021/04/06 12:08:36;;;;;;;9.15;5.90;;;538.40;1024.00;;;;;;5015251;28;20033;-76
2021/04/06 12:11:02;;;;;;;8.55;5.88;;;538.50;972.80;;;;;;4996670;28;20385;-76
2021/04/06 12:13:29;;;;;;;11.48;7.30;;;563.50;1024.00;;;;;;5013198;28;20018;-76
2021/04/06 12:15:55;;;;;;;7.25;5.38;;;563.50;1024.00;;;;;;4993412;28;20049;-76
2021/04/06 12:18:21;;;;;;;9.43;5.70;;;538.00;972.80;;;;;;4991341;28;20072;-78
2021/04/06 12:20:47;;;;;;;22.65;15.52;;;512.70;1049.60;;;;;;4991671;28;20113;-78
2021/04/06 12:23:13;;;;;;;18.48;11.60;;;512.60;1075.20;;;;;;4990971;28;20156;-77